createdAt,value
2019-01-03T00:05:03.971Z,72.28
2019-01-03T00:10:37.657Z,72.57
2019-01-03T00:16:02.194Z,72.65
2019-01-03T00:21:27.511Z,73.13
2019-01-03T00:26:53.681Z,73.46
2019-01-03T00:32:18.726Z,73.93
2019-01-03T00:37:49.747Z,73.60
2019-01-03T00:43:12.779Z,73.67
2019-01-03T00:48:36.223Z,73.51
2019-01-03T00:54:17.978Z,72.99
2019-01-03T01:00:00.662Z,73.50
2019-01-03T01:05:34.642Z,74.30
2019-01-03T01:11:03.244Z,73.60
2019-01-03T01:16:42.920Z,73.51
2019-01-03T01:22:07.083Z,74.69
2019-01-03T01:27:31.454Z,75.50
2019-01-03T01:32:53.758Z,75.80
2019-01-03T01:38:24.974Z,75.90
2019-01-03T01:44:02.069Z,76.19
2019-01-03T01:49:32.513Z,76.87
2019-01-03T01:54:55.300Z,76.22
2019-01-03T02:00:18.488Z,75.85
2019-01-03T02:05:41.343Z,76.65
2019-01-03T02:11:04.245Z,76.13
2019-01-03T02:16:33.686Z,76.82
2019-01-03T02:22:00.718Z,76.94
2019-01-03T02:27:20.034Z,77.76
2019-01-03T02:32:44.229Z,78.25
2019-01-03T02:38:20.523Z,78.64
2019-01-03T02:43:57.110Z,78.96
2019-01-03T02:49:20.786Z,79.22
2019-01-03T02:54:48.383Z,79.25
2019-01-03T03:00:12.579Z,79.82
2019-01-03T03:05:52.157Z,79.75
2019-01-03T03:11:19.350Z,79.11
2019-01-03T03:16:42.855Z,79.33
2019-01-03T03:22:12.954Z,79.16
2019-01-03T03:27:29.646Z,79.10
2019-01-03T03:33:08.697Z,79.79
2019-01-03T03:38:51.425Z,79.48
2019-01-03T03:44:12.558Z,79.94
2019-01-03T03:49:36.759Z,80.18
2019-01-03T03:55:05.400Z,79.20
2019-01-03T04:00:30.019Z,79.56
2019-01-03T04:05:53.619Z,79.03
2019-01-03T04:11:24.173Z,79.15
2019-01-03T04:16:49.634Z,79.17
2019-01-03T04:22:12.982Z,78.92
2019-01-03T04:27:33.652Z,78.83
2019-01-03T04:32:56.732Z,78.96
2019-01-03T04:38:26.827Z,78.90
2019-01-03T04:43:50.195Z,79.72
2019-01-03T04:49:14.561Z,79.60
2019-01-03T04:54:50.793Z,79.23
2019-01-03T05:00:25.629Z,80.62
2019-01-03T05:05:54.776Z,78.99
2019-01-03T05:11:30.062Z,79.48
2019-01-03T05:16:52.956Z,79.15
2019-01-03T05:22:32.975Z,79.73
2019-01-03T05:27:55.847Z,79.67
2019-01-03T05:33:26.596Z,79.96
2019-01-03T05:38:59.551Z,80.25
2019-01-03T05:44:22.743Z,80.99
2019-01-03T05:49:46.760Z,80.85
2019-01-03T05:55:10.092Z,80.89
2019-01-03T06:00:32.131Z,80.46
2019-01-03T06:05:55.243Z,79.71
2019-01-03T06:11:22.718Z,80.14
2019-01-03T06:16:41.227Z,80.25
2019-01-03T06:22:11.487Z,80.38
2019-01-03T06:27:48.660Z,80.44
2019-01-03T06:33:08.470Z,80.45
2019-01-03T06:38:35.672Z,79.89
2019-01-03T06:43:59.013Z,80.43
2019-01-03T06:49:29.242Z,80.21
2019-01-03T06:54:53.135Z,80.25
2019-01-03T07:00:32.770Z,80.18
2019-01-03T07:06:15.125Z,79.91
2019-01-03T07:11:38.170Z,80.03
2019-01-03T07:17:01.485Z,80.23
2019-01-03T07:22:44.102Z,80.33
2019-01-03T07:28:07.488Z,80.09
2019-01-03T07:33:30.945Z,80.62
2019-01-03T07:38:53.435Z,80.66
2019-01-03T07:44:16.381Z,80.74
2019-01-03T07:49:39.338Z,80.46
2019-01-03T07:55:16.093Z,80.66
2019-01-03T08:00:47.573Z,80.17
2019-01-03T08:06:11.646Z,80.22
2019-01-03T08:11:51.110Z,80.35
2019-01-03T08:17:12.163Z,80.56
2019-01-03T08:22:39.485Z,80.23
2019-01-03T08:28:06.415Z,79.76
2019-01-03T08:33:37.269Z,78.90
2019-01-03T08:39:00.427Z,78.18
2019-01-03T08:44:27.057Z,78.27
2019-01-03T08:50:04.068Z,79.38
2019-01-03T08:55:27.768Z,79.85
2019-01-03T09:00:51.912Z,79.25
2019-01-03T09:06:15.345Z,77.18
2019-01-03T09:11:45.526Z,78.43
2019-01-03T09:17:04.443Z,78.14
2019-01-03T09:22:27.665Z,76.96
2019-01-03T09:28:01.018Z,76.67
2019-01-03T09:33:24.712Z,76.32
2019-01-03T09:38:48.959Z,75.88
2019-01-03T09:44:05.546Z,74.56
2019-01-03T09:49:11.187Z,71.85
2019-01-03T09:54:17.398Z,72.39
2019-01-03T09:59:22.907Z,72.05
2019-01-03T10:04:28.447Z,69.11
2019-01-03T10:09:33.678Z,69.80
2019-01-03T10:14:39.223Z,70.88
2019-01-03T10:19:44.397Z,69.30
2019-01-03T10:24:50.826Z,69.03
2019-01-03T10:29:55.999Z,70.36
2019-01-03T10:35:01.187Z,68.98
2019-01-03T10:40:06.785Z,68.48
2019-01-03T10:45:12.073Z,66.61
2019-01-03T10:50:17.276Z,67.87
2019-01-03T10:55:22.445Z,69.27
2019-01-03T11:00:27.609Z,69.72
2019-01-03T11:05:33.868Z,68.13
2019-01-03T11:10:39.035Z,67.39
2019-01-03T11:15:44.341Z,69.15
2019-01-03T11:20:49.492Z,67.28
2019-01-03T11:25:54.584Z,67.75
2019-01-03T11:31:00.072Z,68.82
2019-01-03T11:36:05.245Z,68.53
2019-01-03T11:41:10.432Z,69.07
2019-01-03T11:46:15.633Z,68.93
2019-01-03T11:51:20.831Z,69.65
2019-01-03T11:56:26.007Z,68.37
2019-01-03T12:01:31.476Z,68.70
2019-01-03T12:06:37.009Z,69.32
2019-01-03T12:11:43.223Z,69.71
2019-01-03T12:16:48.408Z,69.61
2019-01-03T12:21:53.926Z,70.32
2019-01-03T12:26:59.393Z,71.49
2019-01-03T12:32:04.665Z,72.08
2019-01-03T12:37:09.849Z,71.79
2019-01-03T12:42:15.021Z,72.92
2019-01-03T12:47:20.234Z,74.34
2019-01-03T12:52:25.968Z,73.72
2019-01-03T12:57:31.140Z,72.93
2019-01-03T13:02:36.685Z,73.75
2019-01-03T13:07:41.920Z,74.76
2019-01-03T13:12:47.099Z,72.23
2019-01-03T13:17:53.459Z,72.56
2019-01-03T13:23:00.343Z,72.91
2019-01-03T13:28:05.505Z,72.59
2019-01-03T13:33:10.701Z,73.32
2019-01-03T13:38:16.194Z,74.33
2019-01-03T13:43:21.501Z,74.79
2019-01-03T13:48:26.778Z,76.20
2019-01-03T13:53:32.011Z,76.37
2019-01-03T13:58:37.649Z,76.77
2019-01-03T14:03:42.819Z,77.22
2019-01-03T14:08:48.020Z,77.96
2019-01-03T14:13:53.202Z,77.83
2019-01-03T14:18:59.825Z,78.09
2019-01-03T14:24:05.975Z,79.20
2019-01-03T14:29:11.182Z,79.83
2019-01-03T14:34:16.366Z,80.05
2019-01-03T14:39:21.558Z,80.39
2019-01-03T14:44:26.929Z,80.79
2019-01-03T14:49:32.178Z,80.90
2019-01-03T14:54:37.443Z,80.76
2019-01-03T14:59:42.917Z,81.04
2019-01-03T15:04:48.794Z,80.89
2019-01-03T15:09:54.284Z,80.72
2019-01-03T15:15:00.967Z,80.62
2019-01-03T15:20:06.611Z,82.25
2019-01-03T15:25:12.428Z,82.59
2019-01-03T15:30:17.638Z,82.61
2019-01-03T15:35:23.507Z,82.38
2019-01-03T15:40:28.814Z,82.55
2019-01-03T15:45:33.993Z,83.72
2019-01-03T15:50:40.692Z,83.45
2019-01-03T15:55:46.263Z,84.30
2019-01-03T16:00:51.439Z,85.18
2019-01-03T16:05:56.618Z,85.09
2019-01-03T16:11:01.835Z,84.87
2019-01-03T16:16:07.067Z,84.55
2019-01-03T16:21:12.629Z,83.79
2019-01-03T16:26:17.850Z,83.20
2019-01-03T16:31:23.066Z,82.59
2019-01-03T16:36:28.244Z,82.84
2019-01-03T16:41:33.789Z,82.74
2019-01-03T16:46:39.283Z,83.05
2019-01-03T16:51:45.481Z,83.33
2019-01-03T16:56:50.665Z,83.47
2019-01-03T17:01:55.967Z,82.75
2019-01-03T17:07:01.263Z,82.73
2019-01-03T17:12:08.670Z,82.14
2019-01-03T17:17:13.864Z,81.34
2019-01-03T17:22:19.492Z,82.14
2019-01-03T17:27:25.143Z,80.98
2019-01-03T17:32:30.712Z,81.36
2019-01-03T17:37:35.910Z,80.50
2019-01-03T17:42:42.149Z,78.79
2019-01-03T17:47:47.323Z,80.08
2019-01-03T17:52:52.808Z,80.11
2019-01-03T17:57:58.879Z,80.16
2019-01-03T18:03:04.451Z,79.14
2019-01-03T18:08:09.695Z,79.08
2019-01-03T18:13:14.972Z,78.78
2019-01-03T18:18:20.533Z,79.09
2019-01-03T18:23:26.342Z,78.93
2019-01-03T18:28:31.505Z,79.01
2019-01-03T18:33:36.691Z,79.04
2019-01-03T18:38:42.242Z,79.52
2019-01-03T18:43:47.697Z,78.81
2019-01-03T18:48:53.799Z,78.84
2019-01-03T18:53:59.108Z,79.92
2019-01-03T18:59:04.290Z,79.71
2019-01-03T19:04:09.529Z,79.39
2019-01-03T19:09:14.738Z,79.60
2019-01-03T19:14:19.905Z,80.15
2019-01-03T19:19:25.194Z,81.10
2019-01-03T19:24:30.418Z,80.82
2019-01-03T19:29:35.606Z,81.02
2019-01-03T19:34:41.595Z,81.56
2019-01-03T19:39:47.154Z,81.60
2019-01-03T19:44:52.481Z,81.41
2019-01-03T19:49:57.967Z,81.85
2019-01-03T19:55:03.149Z,81.76
2019-01-03T20:00:10.729Z,82.03
2019-01-03T20:05:16.267Z,81.61
2019-01-03T20:10:21.454Z,82.19
2019-01-03T20:15:26.682Z,81.90
2019-01-03T20:20:31.859Z,82.23
2019-01-03T20:25:37.820Z,82.54
2019-01-03T20:30:43.259Z,82.87
2019-01-03T20:35:48.890Z,83.06
2019-01-03T20:40:54.080Z,83.00
2019-01-03T20:45:59.480Z,83.38
2019-01-03T20:51:05.136Z,83.52
2019-01-03T20:56:10.330Z,83.53
2019-01-03T21:01:15.970Z,84.48
2019-01-03T21:06:21.218Z,84.63
2019-01-03T21:11:26.412Z,84.62
2019-01-03T21:16:32.459Z,84.41
2019-01-03T21:21:37.649Z,84.46
2019-01-03T21:26:43.119Z,84.58
2019-01-03T21:31:48.313Z,84.43
2019-01-03T21:36:53.538Z,83.94
2019-01-03T21:41:58.719Z,84.80
2019-01-03T21:47:04.454Z,83.87
2019-01-03T21:52:10.844Z,84.25
2019-01-03T21:57:16.264Z,83.85
2019-01-03T22:02:21.857Z,83.89
2019-01-03T22:07:27.930Z,83.82
2019-01-03T22:12:34.529Z,84.94
2019-01-03T22:17:39.886Z,84.22
2019-01-03T22:22:45.096Z,84.26
2019-01-03T22:27:50.296Z,84.89
2019-01-03T22:32:55.886Z,84.43
2019-01-03T22:38:01.447Z,84.99
2019-01-03T22:43:06.654Z,84.82
2019-01-03T22:48:12.122Z,84.52
2019-01-03T22:53:18.517Z,85.25
2019-01-03T22:58:24.071Z,84.92
2019-01-03T23:03:29.514Z,85.17
2019-01-03T23:08:34.702Z,85.01
2019-01-03T23:13:39.914Z,85.05
2019-01-03T23:18:46.276Z,85.06
2019-01-03T23:23:51.528Z,85.09
2019-01-03T23:28:56.710Z,85.47
2019-01-03T23:34:01.886Z,85.62
2019-01-03T23:39:07.295Z,85.58
2019-01-03T23:44:12.485Z,85.89
2019-01-03T23:49:17.990Z,85.80
2019-01-03T23:54:23.195Z,85.80
2019-01-03T23:59:28.377Z,85.95
